CWYO2: Chewey Road

                                SHEF ID:       CWYO2     Illinois River at Chewey, OK
STATION TYPE:
Regulating: Stage = 12.00, Flow = 13730

PRECIP STAGE STAGE(2) RIV-FLOW BAT-LOAD
in ft ft cfs volt
Ccp-Rev Ccp-Rev Ccp-Rev Ccp-Rev Ccp-Rev
(America/Chicago)
05/02 00:00 0.00 4.62 4.60 1496 12.47
05/02 01:00 0.00 4.59 4.58 1472 12.44
05/02 02:00 0.00 4.58 4.55 1464 12.44
05/02 03:00 0.00 4.56 4.54 1448 12.42
05/02 04:00 0.00 4.56 4.53 1448 12.40
05/02 05:00 0.00 4.54 4.52 1432 12.40
05/02 06:00 0.00 4.52 4.50 1417 12.37
05/02 07:00 0.00 4.51 4.50 1409 12.37
05/02 08:00 0.00 4.50 4.47 1401 12.40
05/02 09:00 0.00 4.49 4.47 1393 12.48
05/02 10:00 0.00 4.48 4.46 1385 12.63
05/02 11:00 0.00 4.47 4.45 1377 12.81
05/02 12:00 0.00 4.46 4.43 1369 12.77
05/02 13:00 0.00 4.45 4.42 1361 12.77
05/02 14:00 0.00 4.40 4.41 1322 12.66
05/02 15:00 0.00 4.38 4.40 1307 12.72
05/02 16:00 0.00 4.41 4.39 1330 12.67
05/02 17:00 0.00 4.40 4.37 1322 12.63
05/02 18:00 0.00 4.38 4.36 1307 12.60
05/02 19:00 0.00 4.36 4.34 1291 12.58
05/02 20:00 0.00 4.35 4.33 1283 12.57
05/02 21:00 0.00 4.33 4.31 1268 12.53
05/02 22:00 0.00 4.32 4.30 1260 12.50
05/02 23:00 0.00 4.31 4.29 1252 12.49
Data processed at Sun 03May2026 04:29 GMT

NOTICE: If you are parsing this page

Please convert to using our Data API. Starting early 2026 we will be migrating to: https://water.usace.army.mil with modern pages rendered in JavaScript. When this migration completes you will no longer be able to scrape this page! CWMSDataAPI (CDA)

Timeseries IDs (TSIDs)

TSIDs used from left to right in the data table
CHEW.Precip-Inc.Total.1Hour.1Hour.Ccp-Rev
CHEW.Stage.Inst.1Hour.0.Ccp-Rev
CHEW.Stage-Alt.Inst.1Hour.0.Ccp-Rev
CHEW.Flow.Inst.1Hour.0.Ccp-Rev
CHEW.Volt-Battery Load.Inst.1Hour.0.Ccp-Rev

                            

All information presented herein is the property of the government of the United States of America and may be revised or deleted at any time without prior notice. Dissemination of this information without the expressed written consent of the Public Affairs Office, Tulsa District U.S. Army Corps of Engineers is strictly prohibited. These data are gathered electronically and, as presented, have NOT undergone any form of quality control. These data are NOT guaranteed to be valid or correct.